sensor_id;sensor_type;location;lat;lon;timestamp;P1;durP1;ratioP1;P2;durP2;ratioP2
5060;SDS011;2549;52.128;21.068;2022-07-29T00:02:26;18.30;;;4.37;;
5060;SDS011;2549;52.128;21.068;2022-07-29T00:04:54;8.60;;;4.17;;
5060;SDS011;2549;52.128;21.068;2022-07-29T00:07:21;8.33;;;3.80;;
5060;SDS011;2549;52.128;21.068;2022-07-29T00:09:47;4.87;;;3.70;;
5060;SDS011;2549;52.128;21.068;2022-07-29T00:12:18;6.20;;;3.83;;
5060;SDS011;2549;52.128;21.068;2022-07-29T00:14:52;10.67;;;3.80;;
5060;SDS011;2549;52.128;21.068;2022-07-29T00:17:20;8.00;;;4.27;;
5060;SDS011;2549;52.128;21.068;2022-07-29T00:19:47;11.37;;;4.60;;
5060;SDS011;2549;52.128;21.068;2022-07-29T00:22:13;13.10;;;3.60;;
5060;SDS011;2549;52.128;21.068;2022-07-29T00:24:40;5.57;;;3.60;;
5060;SDS011;2549;52.128;21.068;2022-07-29T00:27:07;8.77;;;4.17;;
5060;SDS011;2549;52.128;21.068;2022-07-29T00:29:34;8.60;;;3.97;;
5060;SDS011;2549;52.128;21.068;2022-07-29T00:32:02;7.23;;;4.50;;
5060;SDS011;2549;52.128;21.068;2022-07-29T00:34:29;7.93;;;3.87;;
5060;SDS011;2549;52.128;21.068;2022-07-29T00:37:15;4.43;;;3.00;;
5060;SDS011;2549;52.128;21.068;2022-07-29T00:39:42;6.20;;;3.20;;
5060;SDS011;2549;52.128;21.068;2022-07-29T00:42:09;10.30;;;3.60;;
5060;SDS011;2549;52.128;21.068;2022-07-29T00:44:37;6.33;;;3.53;;
5060;SDS011;2549;52.128;21.068;2022-07-29T00:47:05;9.53;;;3.70;;
5060;SDS011;2549;52.128;21.068;2022-07-29T00:49:33;6.50;;;3.73;;
5060;SDS011;2549;52.128;21.068;2022-07-29T00:52:01;5.47;;;4.00;;
5060;SDS011;2549;52.128;21.068;2022-07-29T00:54:32;7.80;;;4.03;;
5060;SDS011;2549;52.128;21.068;2022-07-29T00:57:02;6.37;;;3.40;;
5060;SDS011;2549;52.128;21.068;2022-07-29T00:59:31;6.83;;;3.50;;
5060;SDS011;2549;52.128;21.068;2022-07-29T01:02:00;11.73;;;4.30;;
5060;SDS011;2549;52.128;21.068;2022-07-29T01:04:31;4.30;;;3.67;;
5060;SDS011;2549;52.128;21.068;2022-07-29T01:06:58;5.63;;;3.53;;
5060;SDS011;2549;52.128;21.068;2022-07-29T01:09:28;9.13;;;4.10;;
5060;SDS011;2549;52.128;21.068;2022-07-29T01:12:10;4.50;;;3.50;;
5060;SDS011;2549;52.128;21.068;2022-07-29T01:14:39;6.30;;;2.97;;
5060;SDS011;2549;52.128;21.068;2022-07-29T01:17:12;9.70;;;3.20;;
5060;SDS011;2549;52.128;21.068;2022-07-29T01:23:08;5.60;;;3.20;;
5060;SDS011;2549;52.128;21.068;2022-07-29T01:28:52;5.73;;;3.17;;
5060;SDS011;2549;52.128;21.068;2022-07-29T01:31:35;5.10;;;3.27;;
5060;SDS011;2549;52.128;21.068;2022-07-29T01:37:26;6.43;;;3.00;;
5060;SDS011;2549;52.128;21.068;2022-07-29T01:39:54;3.73;;;2.83;;
5060;SDS011;2549;52.128;21.068;2022-07-29T01:42:27;4.07;;;3.20;;
5060;SDS011;2549;52.128;21.068;2022-07-29T01:44:58;3.63;;;3.00;;
5060;SDS011;2549;52.128;21.068;2022-07-29T01:47:40;5.90;;;2.63;;
5060;SDS011;2549;52.128;21.068;2022-07-29T01:50:14;3.83;;;2.40;;
5060;SDS011;2549;52.128;21.068;2022-07-29T01:52:54;3.00;;;2.47;;
5060;SDS011;2549;52.128;21.068;2022-07-29T01:55:43;13.60;;;3.07;;
5060;SDS011;2549;52.128;21.068;2022-07-29T01:58:12;5.87;;;3.27;;
5060;SDS011;2549;52.128;21.068;2022-07-29T02:00:45;8.10;;;3.60;;
5060;SDS011;2549;52.128;21.068;2022-07-29T02:03:14;8.23;;;2.60;;
5060;SDS011;2549;52.128;21.068;2022-07-29T02:05:43;5.37;;;2.23;;
5060;SDS011;2549;52.128;21.068;2022-07-29T02:08:13;2.53;;;2.33;;
5060;SDS011;2549;52.128;21.068;2022-07-29T02:10:41;7.67;;;2.90;;
5060;SDS011;2549;52.128;21.068;2022-07-29T02:13:09;5.93;;;2.80;;
5060;SDS011;2549;52.128;21.068;2022-07-29T02:15:38;4.80;;;2.57;;
5060;SDS011;2549;52.128;21.068;2022-07-29T02:18:15;4.67;;;2.53;;
5060;SDS011;2549;52.128;21.068;2022-07-29T02:20:49;9.20;;;2.90;;
5060;SDS011;2549;52.128;21.068;2022-07-29T02:23:19;10.00;;;2.57;;
5060;SDS011;2549;52.128;21.068;2022-07-29T02:25:48;6.50;;;2.50;;
5060;SDS011;2549;52.128;21.068;2022-07-29T02:28:18;2.30;;;2.10;;
5060;SDS011;2549;52.128;21.068;2022-07-29T02:30:46;4.10;;;2.57;;
5060;SDS011;2549;52.128;21.068;2022-07-29T02:33:15;2.40;;;2.20;;
5060;SDS011;2549;52.128;21.068;2022-07-29T02:35:45;4.53;;;2.27;;
5060;SDS011;2549;52.128;21.068;2022-07-29T02:38:14;2.23;;;1.73;;
5060;SDS011;2549;52.128;21.068;2022-07-29T02:41:05;3.37;;;2.20;;
5060;SDS011;2549;52.128;21.068;2022-07-29T02:43:40;5.00;;;2.10;;
5060;SDS011;2549;52.128;21.068;2022-07-29T02:46:14;2.47;;;2.00;;
5060;SDS011;2549;52.128;21.068;2022-07-29T02:48:59;4.57;;;2.10;;
5060;SDS011;2549;52.128;21.068;2022-07-29T02:51:42;3.60;;;2.40;;
5060;SDS011;2549;52.128;21.068;2022-07-29T02:54:31;12.23;;;2.57;;
5060;SDS011;2549;52.128;21.068;2022-07-29T02:57:02;4.73;;;3.00;;
5060;SDS011;2549;52.128;21.068;2022-07-29T02:59:36;5.27;;;2.00;;
5060;SDS011;2549;52.128;21.068;2022-07-29T03:02:07;2.77;;;1.90;;
5060;SDS011;2549;52.128;21.068;2022-07-29T03:04:37;2.50;;;2.10;;
5060;SDS011;2549;52.128;21.068;2022-07-29T03:07:08;4.73;;;2.07;;
5060;SDS011;2549;52.128;21.068;2022-07-29T03:09:37;3.47;;;1.93;;
5060;SDS011;2549;52.128;21.068;2022-07-29T03:12:04;2.03;;;1.80;;
5060;SDS011;2549;52.128;21.068;2022-07-29T03:14:32;4.63;;;1.80;;
5060;SDS011;2549;52.128;21.068;2022-07-29T03:16:59;3.43;;;2.00;;
5060;SDS011;2549;52.128;21.068;2022-07-29T03:19:27;2.83;;;2.20;;
5060;SDS011;2549;52.128;21.068;2022-07-29T03:21:57;5.23;;;2.33;;
5060;SDS011;2549;52.128;21.068;2022-07-29T03:24:28;2.60;;;2.17;;
5060;SDS011;2549;52.128;21.068;2022-07-29T03:27:00;4.17;;;2.00;;
5060;SDS011;2549;52.128;21.068;2022-07-29T03:29:27;2.40;;;1.77;;
5060;SDS011;2549;52.128;21.068;2022-07-29T03:31:59;2.30;;;2.00;;
5060;SDS011;2549;52.128;21.068;2022-07-29T03:34:28;3.00;;;1.83;;
5060;SDS011;2549;52.128;21.068;2022-07-29T03:36:55;4.50;;;2.30;;
5060;SDS011;2549;52.128;21.068;2022-07-29T03:39:23;1.60;;;1.50;;
5060;SDS011;2549;52.128;21.068;2022-07-29T03:41:55;2.40;;;1.83;;
5060;SDS011;2549;52.128;21.068;2022-07-29T03:44:23;2.27;;;2.10;;
5060;SDS011;2549;52.128;21.068;2022-07-29T03:46:53;12.23;;;2.20;;
5060;SDS011;2549;52.128;21.068;2022-07-29T03:49:24;1.97;;;1.77;;
5060;SDS011;2549;52.128;21.068;2022-07-29T03:51:52;3.90;;;2.20;;
5060;SDS011;2549;52.128;21.068;2022-07-29T03:54:19;5.37;;;1.77;;
5060;SDS011;2549;52.128;21.068;2022-07-29T03:56:47;4.50;;;2.20;;
5060;SDS011;2549;52.128;21.068;2022-07-29T03:59:16;2.13;;;1.93;;
5060;SDS011;2549;52.128;21.068;2022-07-29T04:01:46;6.30;;;1.97;;
5060;SDS011;2549;52.128;21.068;2022-07-29T04:04:14;5.23;;;1.90;;
5060;SDS011;2549;52.128;21.068;2022-07-29T04:06:42;8.03;;;2.17;;
5060;SDS011;2549;52.128;21.068;2022-07-29T04:09:13;4.90;;;1.90;;
5060;SDS011;2549;52.128;21.068;2022-07-29T04:11:41;3.03;;;1.93;;
5060;SDS011;2549;52.128;21.068;2022-07-29T04:14:29;1.90;;;1.60;;
5060;SDS011;2549;52.128;21.068;2022-07-29T04:16:56;1.77;;;1.60;;
5060;SDS011;2549;52.128;21.068;2022-07-29T04:19:23;6.77;;;1.80;;
5060;SDS011;2549;52.128;21.068;2022-07-29T04:21:50;5.60;;;1.97;;
5060;SDS011;2549;52.128;21.068;2022-07-29T04:24:18;4.70;;;1.87;;
5060;SDS011;2549;52.128;21.068;2022-07-29T04:26:45;7.77;;;2.20;;
5060;SDS011;2549;52.128;21.068;2022-07-29T04:29:13;3.60;;;2.10;;
5060;SDS011;2549;52.128;21.068;2022-07-29T04:31:40;6.93;;;2.00;;
5060;SDS011;2549;52.128;21.068;2022-07-29T04:34:08;6.77;;;2.13;;
5060;SDS011;2549;52.128;21.068;2022-07-29T04:36:35;2.03;;;1.60;;
5060;SDS011;2549;52.128;21.068;2022-07-29T04:39:03;10.93;;;1.93;;
5060;SDS011;2549;52.128;21.068;2022-07-29T04:41:30;3.80;;;1.60;;
5060;SDS011;2549;52.128;21.068;2022-07-29T04:43:59;8.73;;;2.20;;
5060;SDS011;2549;52.128;21.068;2022-07-29T04:46:33;19.63;;;2.50;;
5060;SDS011;2549;52.128;21.068;2022-07-29T04:49:01;5.00;;;2.10;;
5060;SDS011;2549;52.128;21.068;2022-07-29T04:51:29;8.40;;;1.83;;
5060;SDS011;2549;52.128;21.068;2022-07-29T04:53:56;6.00;;;1.63;;
5060;SDS011;2549;52.128;21.068;2022-07-29T04:56:24;4.30;;;2.10;;
5060;SDS011;2549;52.128;21.068;2022-07-29T04:58:52;2.80;;;1.97;;
5060;SDS011;2549;52.128;21.068;2022-07-29T05:01:19;7.83;;;1.93;;
5060;SDS011;2549;52.128;21.068;2022-07-29T05:03:46;4.80;;;1.50;;
5060;SDS011;2549;52.128;21.068;2022-07-29T05:06:13;3.47;;;1.60;;
5060;SDS011;2549;52.128;21.068;2022-07-29T05:08:40;1.53;;;1.30;;
5060;SDS011;2549;52.128;21.068;2022-07-29T05:11:07;1.83;;;1.10;;
5060;SDS011;2549;52.128;21.068;2022-07-29T05:13:38;2.47;;;1.33;;
5060;SDS011;2549;52.128;21.068;2022-07-29T05:16:11;7.70;;;1.80;;
5060;SDS011;2549;52.128;21.068;2022-07-29T05:18:39;3.10;;;1.50;;
5060;SDS011;2549;52.128;21.068;2022-07-29T05:21:06;5.07;;;1.13;;
5060;SDS011;2549;52.128;21.068;2022-07-29T05:23:33;3.30;;;2.00;;
5060;SDS011;2549;52.128;21.068;2022-07-29T05:26:00;3.60;;;1.20;;
5060;SDS011;2549;52.128;21.068;2022-07-29T05:28:27;6.43;;;2.00;;
5060;SDS011;2549;52.128;21.068;2022-07-29T05:30:54;2.60;;;1.57;;
5060;SDS011;2549;52.128;21.068;2022-07-29T05:33:21;5.10;;;1.30;;
5060;SDS011;2549;52.128;21.068;2022-07-29T05:36:02;3.20;;;1.30;;
5060;SDS011;2549;52.128;21.068;2022-07-29T05:38:31;1.80;;;1.23;;
5060;SDS011;2549;52.128;21.068;2022-07-29T05:40:59;2.03;;;0.90;;
5060;SDS011;2549;52.128;21.068;2022-07-29T05:43:26;3.80;;;1.30;;
5060;SDS011;2549;52.128;21.068;2022-07-29T05:45:54;2.70;;;1.10;;
5060;SDS011;2549;52.128;21.068;2022-07-29T05:48:22;1.60;;;1.07;;
5060;SDS011;2549;52.128;21.068;2022-07-29T05:50:49;6.93;;;1.10;;
5060;SDS011;2549;52.128;21.068;2022-07-29T05:53:16;4.97;;;1.60;;
5060;SDS011;2549;52.128;21.068;2022-07-29T05:55:45;1.80;;;1.10;;
5060;SDS011;2549;52.128;21.068;2022-07-29T05:58:16;3.47;;;1.43;;
5060;SDS011;2549;52.128;21.068;2022-07-29T06:00:43;1.63;;;1.00;;
5060;SDS011;2549;52.128;21.068;2022-07-29T06:03:10;1.50;;;1.40;;
5060;SDS011;2549;52.128;21.068;2022-07-29T06:05:37;2.70;;;1.27;;
5060;SDS011;2549;52.128;21.068;2022-07-29T06:08:04;0.70;;;0.70;;
5060;SDS011;2549;52.128;21.068;2022-07-29T06:10:34;5.13;;;1.23;;
5060;SDS011;2549;52.128;21.068;2022-07-29T06:13:02;4.20;;;1.67;;
5060;SDS011;2549;52.128;21.068;2022-07-29T06:15:29;5.70;;;1.50;;
5060;SDS011;2549;52.128;21.068;2022-07-29T06:17:56;2.10;;;0.90;;
5060;SDS011;2549;52.128;21.068;2022-07-29T06:20:29;5.90;;;0.97;;
5060;SDS011;2549;52.128;21.068;2022-07-29T06:22:58;3.00;;;1.10;;
5060;SDS011;2549;52.128;21.068;2022-07-29T06:25:26;1.00;;;0.90;;
5060;SDS011;2549;52.128;21.068;2022-07-29T06:27:55;0.80;;;0.80;;
5060;SDS011;2549;52.128;21.068;2022-07-29T06:30:23;1.53;;;1.20;;
5060;SDS011;2549;52.128;21.068;2022-07-29T06:32:50;3.50;;;0.90;;
5060;SDS011;2549;52.128;21.068;2022-07-29T06:35:17;0.80;;;0.80;;
5060;SDS011;2549;52.128;21.068;2022-07-29T06:38:04;1.90;;;0.93;;
5060;SDS011;2549;52.128;21.068;2022-07-29T06:40:51;1.73;;;1.57;;
5060;SDS011;2549;52.128;21.068;2022-07-29T06:46:18;2.90;;;1.20;;
5060;SDS011;2549;52.128;21.068;2022-07-29T06:48:45;1.40;;;1.10;;
5060;SDS011;2549;52.128;21.068;2022-07-29T06:51:14;1.73;;;0.80;;
5060;SDS011;2549;52.128;21.068;2022-07-29T06:53:48;0.90;;;0.90;;
5060;SDS011;2549;52.128;21.068;2022-07-29T06:56:28;1.97;;;0.80;;
5060;SDS011;2549;52.128;21.068;2022-07-29T06:59:05;0.80;;;0.80;;
5060;SDS011;2549;52.128;21.068;2022-07-29T07:01:33;4.20;;;1.10;;
5060;SDS011;2549;52.128;21.068;2022-07-29T07:04:01;4.23;;;1.10;;
5060;SDS011;2549;52.128;21.068;2022-07-29T07:06:28;3.00;;;1.23;;
5060;SDS011;2549;52.128;21.068;2022-07-29T07:08:55;4.60;;;1.23;;
5060;SDS011;2549;52.128;21.068;2022-07-29T07:11:22;1.80;;;0.80;;
5060;SDS011;2549;52.128;21.068;2022-07-29T07:13:49;3.83;;;0.93;;
5060;SDS011;2549;52.128;21.068;2022-07-29T07:16:16;5.63;;;0.93;;
5060;SDS011;2549;52.128;21.068;2022-07-29T07:18:43;0.73;;;0.73;;
5060;SDS011;2549;52.128;21.068;2022-07-29T07:21:11;4.77;;;1.20;;
5060;SDS011;2549;52.128;21.068;2022-07-29T07:23:44;2.10;;;1.07;;
5060;SDS011;2549;52.128;21.068;2022-07-29T07:26:12;1.10;;;0.80;;
5060;SDS011;2549;52.128;21.068;2022-07-29T07:28:39;0.87;;;0.87;;
5060;SDS011;2549;52.128;21.068;2022-07-29T07:31:06;3.77;;;1.27;;
5060;SDS011;2549;52.128;21.068;2022-07-29T07:33:33;9.30;;;2.43;;
5060;SDS011;2549;52.128;21.068;2022-07-29T07:36:00;4.53;;;1.87;;
5060;SDS011;2549;52.128;21.068;2022-07-29T07:38:26;1.73;;;1.00;;
5060;SDS011;2549;52.128;21.068;2022-07-29T07:40:53;2.27;;;1.00;;
5060;SDS011;2549;52.128;21.068;2022-07-29T07:43:20;2.67;;;0.90;;
5060;SDS011;2549;52.128;21.068;2022-07-29T07:45:48;4.27;;;1.40;;
5060;SDS011;2549;52.128;21.068;2022-07-29T07:48:15;7.80;;;1.30;;
5060;SDS011;2549;52.128;21.068;2022-07-29T07:50:41;5.70;;;0.80;;
5060;SDS011;2549;52.128;21.068;2022-07-29T07:53:10;5.73;;;1.20;;
5060;SDS011;2549;52.128;21.068;2022-07-29T07:55:40;4.27;;;0.80;;
5060;SDS011;2549;52.128;21.068;2022-07-29T07:58:28;4.77;;;0.80;;
5060;SDS011;2549;52.128;21.068;2022-07-29T08:00:55;3.53;;;1.40;;
5060;SDS011;2549;52.128;21.068;2022-07-29T08:03:23;5.47;;;1.23;;
5060;SDS011;2549;52.128;21.068;2022-07-29T08:05:49;2.57;;;1.03;;
5060;SDS011;2549;52.128;21.068;2022-07-29T08:08:20;1.23;;;0.93;;
5060;SDS011;2549;52.128;21.068;2022-07-29T08:10:47;3.60;;;0.80;;
5060;SDS011;2549;52.128;21.068;2022-07-29T08:13:23;1.53;;;0.90;;
5060;SDS011;2549;52.128;21.068;2022-07-29T08:15:54;1.10;;;1.03;;
5060;SDS011;2549;52.128;21.068;2022-07-29T08:18:29;3.50;;;0.90;;
5060;SDS011;2549;52.128;21.068;2022-07-29T08:20:57;10.83;;;1.33;;
5060;SDS011;2549;52.128;21.068;2022-07-29T08:23:24;0.90;;;0.90;;
5060;SDS011;2549;52.128;21.068;2022-07-29T08:26:13;1.17;;;1.07;;
5060;SDS011;2549;52.128;21.068;2022-07-29T08:28:40;2.90;;;1.40;;
5060;SDS011;2549;52.128;21.068;2022-07-29T08:31:12;1.10;;;1.00;;
5060;SDS011;2549;52.128;21.068;2022-07-29T08:33:40;3.23;;;0.80;;
5060;SDS011;2549;52.128;21.068;2022-07-29T08:36:07;1.20;;;1.00;;
5060;SDS011;2549;52.128;21.068;2022-07-29T08:38:34;1.47;;;0.90;;
5060;SDS011;2549;52.128;21.068;2022-07-29T08:41:01;6.00;;;1.23;;
5060;SDS011;2549;52.128;21.068;2022-07-29T08:43:29;4.63;;;0.97;;
5060;SDS011;2549;52.128;21.068;2022-07-29T08:45:56;1.43;;;1.17;;
5060;SDS011;2549;52.128;21.068;2022-07-29T08:48:23;5.60;;;1.20;;
5060;SDS011;2549;52.128;21.068;2022-07-29T08:50:54;4.80;;;1.10;;
5060;SDS011;2549;52.128;21.068;2022-07-29T08:53:23;2.40;;;0.90;;
5060;SDS011;2549;52.128;21.068;2022-07-29T08:55:52;0.83;;;0.83;;
5060;SDS011;2549;52.128;21.068;2022-07-29T08:58:20;7.30;;;2.03;;
5060;SDS011;2549;52.128;21.068;2022-07-29T09:00:54;3.77;;;1.40;;
5060;SDS011;2549;52.128;21.068;2022-07-29T09:03:24;1.60;;;1.00;;
5060;SDS011;2549;52.128;21.068;2022-07-29T09:05:53;4.43;;;0.90;;
5060;SDS011;2549;52.128;21.068;2022-07-29T09:08:20;3.37;;;0.90;;
5060;SDS011;2549;52.128;21.068;2022-07-29T09:10:49;1.20;;;0.80;;
5060;SDS011;2549;52.128;21.068;2022-07-29T09:13:17;1.97;;;0.80;;
5060;SDS011;2549;52.128;21.068;2022-07-29T09:15:44;0.70;;;0.70;;
5060;SDS011;2549;52.128;21.068;2022-07-29T09:18:11;3.63;;;1.20;;
5060;SDS011;2549;52.128;21.068;2022-07-29T09:20:56;2.20;;;0.80;;
5060;SDS011;2549;52.128;21.068;2022-07-29T09:23:56;1.13;;;1.00;;
5060;SDS011;2549;52.128;21.068;2022-07-29T09:26:39;1.37;;;1.00;;
5060;SDS011;2549;52.128;21.068;2022-07-29T09:29:12;3.60;;;1.30;;
5060;SDS011;2549;52.128;21.068;2022-07-29T09:31:42;6.30;;;1.20;;
5060;SDS011;2549;52.128;21.068;2022-07-29T09:34:12;10.77;;;1.50;;
5060;SDS011;2549;52.128;21.068;2022-07-29T09:36:41;0.80;;;0.80;;
5060;SDS011;2549;52.128;21.068;2022-07-29T09:39:09;8.73;;;1.50;;
5060;SDS011;2549;52.128;21.068;2022-07-29T09:42:10;3.80;;;1.30;;
5060;SDS011;2549;52.128;21.068;2022-07-29T09:44:41;2.47;;;1.10;;
5060;SDS011;2549;52.128;21.068;2022-07-29T09:47:14;1.90;;;1.03;;
5060;SDS011;2549;52.128;21.068;2022-07-29T09:49:53;3.13;;;0.90;;
5060;SDS011;2549;52.128;21.068;2022-07-29T09:52:25;3.43;;;1.20;;
5060;SDS011;2549;52.128;21.068;2022-07-29T09:55:06;1.90;;;1.00;;
5060;SDS011;2549;52.128;21.068;2022-07-29T09:57:34;1.63;;;0.90;;
5060;SDS011;2549;52.128;21.068;2022-07-29T10:02:34;1.87;;;1.00;;
5060;SDS011;2549;52.128;21.068;2022-07-29T10:05:04;5.67;;;0.93;;
5060;SDS011;2549;52.128;21.068;2022-07-29T10:07:43;3.60;;;1.23;;
5060;SDS011;2549;52.128;21.068;2022-07-29T10:10:25;5.70;;;2.20;;
5060;SDS011;2549;52.128;21.068;2022-07-29T10:13:00;4.37;;;1.00;;
5060;SDS011;2549;52.128;21.068;2022-07-29T10:15:39;8.00;;;0.90;;
5060;SDS011;2549;52.128;21.068;2022-07-29T10:18:10;3.40;;;1.30;;
5060;SDS011;2549;52.128;21.068;2022-07-29T10:20:39;6.37;;;1.00;;
5060;SDS011;2549;52.128;21.068;2022-07-29T10:23:06;2.00;;;0.90;;
5060;SDS011;2549;52.128;21.068;2022-07-29T10:25:33;1.33;;;0.90;;
5060;SDS011;2549;52.128;21.068;2022-07-29T10:28:00;9.80;;;1.20;;
5060;SDS011;2549;52.128;21.068;2022-07-29T10:30:27;2.33;;;0.90;;
5060;SDS011;2549;52.128;21.068;2022-07-29T10:41:36;6.43;;;1.40;;
5060;SDS011;2549;52.128;21.068;2022-07-29T10:44:24;7.67;;;1.03;;
5060;SDS011;2549;52.128;21.068;2022-07-29T10:46:53;2.43;;;0.80;;
5060;SDS011;2549;52.128;21.068;2022-07-29T10:49:25;3.90;;;0.90;;
5060;SDS011;2549;52.128;21.068;2022-07-29T10:52:08;2.43;;;0.97;;
5060;SDS011;2549;52.128;21.068;2022-07-29T11:00:31;2.93;;;0.90;;
5060;SDS011;2549;52.128;21.068;2022-07-29T11:10:46;3.20;;;0.83;;
5060;SDS011;2549;52.128;21.068;2022-07-29T11:16:18;4.97;;;0.87;;
5060;SDS011;2549;52.128;21.068;2022-07-29T11:21:41;4.07;;;1.23;;
5060;SDS011;2549;52.128;21.068;2022-07-29T11:24:24;6.37;;;1.03;;
5060;SDS011;2549;52.128;21.068;2022-07-29T11:29:49;1.00;;;0.70;;
5060;SDS011;2549;52.128;21.068;2022-07-29T11:32:22;2.20;;;0.90;;
5060;SDS011;2549;52.128;21.068;2022-07-29T11:35:11;1.53;;;1.07;;
5060;SDS011;2549;52.128;21.068;2022-07-29T11:37:43;2.10;;;0.90;;
5060;SDS011;2549;52.128;21.068;2022-07-29T11:40:20;1.77;;;1.23;;
5060;SDS011;2549;52.128;21.068;2022-07-29T11:42:48;1.13;;;0.80;;
5060;SDS011;2549;52.128;21.068;2022-07-29T11:45:18;1.60;;;0.73;;
5060;SDS011;2549;52.128;21.068;2022-07-29T11:48:07;1.10;;;1.00;;
5060;SDS011;2549;52.128;21.068;2022-07-29T11:50:55;15.83;;;2.03;;
5060;SDS011;2549;52.128;21.068;2022-07-29T11:53:23;7.47;;;1.63;;
5060;SDS011;2549;52.128;21.068;2022-07-29T11:55:54;0.80;;;0.80;;
5060;SDS011;2549;52.128;21.068;2022-07-29T11:58:23;2.67;;;1.03;;
5060;SDS011;2549;52.128;21.068;2022-07-29T12:00:51;0.97;;;0.97;;
5060;SDS011;2549;52.128;21.068;2022-07-29T12:03:25;0.83;;;0.83;;
5060;SDS011;2549;52.128;21.068;2022-07-29T12:06:02;1.90;;;0.90;;
5060;SDS011;2549;52.128;21.068;2022-07-29T12:08:59;4.37;;;0.80;;
5060;SDS011;2549;52.128;21.068;2022-07-29T12:11:27;2.33;;;0.90;;
5060;SDS011;2549;52.128;21.068;2022-07-29T12:13:54;1.07;;;0.80;;
5060;SDS011;2549;52.128;21.068;2022-07-29T12:16:21;0.70;;;0.70;;
5060;SDS011;2549;52.128;21.068;2022-07-29T12:18:59;0.63;;;0.63;;
5060;SDS011;2549;52.128;21.068;2022-07-29T12:21:27;2.60;;;0.90;;
5060;SDS011;2549;52.128;21.068;2022-07-29T12:24:22;2.30;;;0.80;;
5060;SDS011;2549;52.128;21.068;2022-07-29T12:26:56;2.10;;;1.20;;
5060;SDS011;2549;52.128;21.068;2022-07-29T12:29:25;3.67;;;0.90;;
5060;SDS011;2549;52.128;21.068;2022-07-29T12:32:00;1.70;;;0.70;;
5060;SDS011;2549;52.128;21.068;2022-07-29T12:34:29;0.63;;;0.60;;
5060;SDS011;2549;52.128;21.068;2022-07-29T12:36:56;3.03;;;0.60;;
5060;SDS011;2549;52.128;21.068;2022-07-29T12:39:24;5.13;;;0.80;;
5060;SDS011;2549;52.128;21.068;2022-07-29T12:41:54;0.87;;;0.80;;
5060;SDS011;2549;52.128;21.068;2022-07-29T12:44:49;2.67;;;0.70;;
5060;SDS011;2549;52.128;21.068;2022-07-29T12:47:17;1.03;;;1.03;;
5060;SDS011;2549;52.128;21.068;2022-07-29T12:49:45;4.30;;;1.97;;
5060;SDS011;2549;52.128;21.068;2022-07-29T12:52:32;2.10;;;1.00;;
5060;SDS011;2549;52.128;21.068;2022-07-29T12:55:00;2.30;;;0.90;;
5060;SDS011;2549;52.128;21.068;2022-07-29T12:57:28;5.87;;;1.20;;
5060;SDS011;2549;52.128;21.068;2022-07-29T12:59:59;1.13;;;0.90;;
5060;SDS011;2549;52.128;21.068;2022-07-29T13:02:35;13.03;;;1.33;;
5060;SDS011;2549;52.128;21.068;2022-07-29T13:05:03;3.43;;;1.00;;
5060;SDS011;2549;52.128;21.068;2022-07-29T13:07:32;1.47;;;0.90;;
5060;SDS011;2549;52.128;21.068;2022-07-29T13:10:21;13.53;;;1.00;;
5060;SDS011;2549;52.128;21.068;2022-07-29T13:13:06;4.50;;;0.90;;
5060;SDS011;2549;52.128;21.068;2022-07-29T13:15:36;2.93;;;1.17;;
5060;SDS011;2549;52.128;21.068;2022-07-29T13:18:05;3.33;;;0.83;;
5060;SDS011;2549;52.128;21.068;2022-07-29T13:20:54;12.33;;;1.37;;
5060;SDS011;2549;52.128;21.068;2022-07-29T13:23:21;25.73;;;1.80;;
5060;SDS011;2549;52.128;21.068;2022-07-29T13:25:48;6.53;;;1.00;;
5060;SDS011;2549;52.128;21.068;2022-07-29T13:28:15;1.10;;;0.70;;
5060;SDS011;2549;52.128;21.068;2022-07-29T13:30:42;3.60;;;0.83;;
5060;SDS011;2549;52.128;21.068;2022-07-29T13:33:10;2.50;;;0.90;;
5060;SDS011;2549;52.128;21.068;2022-07-29T13:35:37;1.00;;;0.90;;
5060;SDS011;2549;52.128;21.068;2022-07-29T13:38:05;6.20;;;0.80;;
5060;SDS011;2549;52.128;21.068;2022-07-29T13:40:33;8.70;;;1.20;;
5060;SDS011;2549;52.128;21.068;2022-07-29T13:43:01;4.13;;;1.17;;
5060;SDS011;2549;52.128;21.068;2022-07-29T13:45:29;13.73;;;1.00;;
5060;SDS011;2549;52.128;21.068;2022-07-29T13:47:56;1.93;;;0.83;;
5060;SDS011;2549;52.128;21.068;2022-07-29T13:50:22;2.00;;;1.07;;
5060;SDS011;2549;52.128;21.068;2022-07-29T13:52:49;1.73;;;0.80;;
5060;SDS011;2549;52.128;21.068;2022-07-29T13:55:17;1.13;;;1.00;;
5060;SDS011;2549;52.128;21.068;2022-07-29T13:57:44;22.37;;;2.27;;
5060;SDS011;2549;52.128;21.068;2022-07-29T14:00:11;21.67;;;3.90;;
5060;SDS011;2549;52.128;21.068;2022-07-29T14:02:38;12.17;;;2.43;;
5060;SDS011;2549;52.128;21.068;2022-07-29T14:05:06;2.87;;;1.03;;
5060;SDS011;2549;52.128;21.068;2022-07-29T14:07:34;2.63;;;1.03;;
5060;SDS011;2549;52.128;21.068;2022-07-29T14:10:01;1.33;;;0.80;;
5060;SDS011;2549;52.128;21.068;2022-07-29T14:12:29;0.93;;;0.77;;
5060;SDS011;2549;52.128;21.068;2022-07-29T14:14:56;8.00;;;1.10;;
5060;SDS011;2549;52.128;21.068;2022-07-29T14:17:22;4.80;;;0.90;;
5060;SDS011;2549;52.128;21.068;2022-07-29T14:19:50;6.37;;;0.97;;
5060;SDS011;2549;52.128;21.068;2022-07-29T14:22:16;1.57;;;0.80;;
5060;SDS011;2549;52.128;21.068;2022-07-29T14:24:48;2.53;;;1.07;;
5060;SDS011;2549;52.128;21.068;2022-07-29T14:27:15;1.30;;;0.73;;
5060;SDS011;2549;52.128;21.068;2022-07-29T14:29:42;3.70;;;0.90;;
5060;SDS011;2549;52.128;21.068;2022-07-29T14:32:09;2.30;;;0.80;;
5060;SDS011;2549;52.128;21.068;2022-07-29T14:34:37;4.60;;;0.77;;
5060;SDS011;2549;52.128;21.068;2022-07-29T14:37:04;0.80;;;0.80;;
5060;SDS011;2549;52.128;21.068;2022-07-29T14:39:33;0.90;;;0.90;;
5060;SDS011;2549;52.128;21.068;2022-07-29T14:42:08;12.83;;;0.97;;
5060;SDS011;2549;52.128;21.068;2022-07-29T14:44:37;6.23;;;0.77;;
5060;SDS011;2549;52.128;21.068;2022-07-29T14:47:05;1.17;;;1.00;;
5060;SDS011;2549;52.128;21.068;2022-07-29T14:49:33;1.17;;;0.83;;
5060;SDS011;2549;52.128;21.068;2022-07-29T14:52:01;5.37;;;0.90;;
5060;SDS011;2549;52.128;21.068;2022-07-29T14:54:29;8.10;;;0.80;;
5060;SDS011;2549;52.128;21.068;2022-07-29T14:56:55;0.83;;;0.80;;
5060;SDS011;2549;52.128;21.068;2022-07-29T14:59:24;5.47;;;0.80;;
5060;SDS011;2549;52.128;21.068;2022-07-29T15:01:51;3.33;;;0.80;;
5060;SDS011;2549;52.128;21.068;2022-07-29T15:04:18;9.40;;;1.03;;
5060;SDS011;2549;52.128;21.068;2022-07-29T15:06:45;4.20;;;1.03;;
5060;SDS011;2549;52.128;21.068;2022-07-29T15:09:12;1.00;;;0.83;;
5060;SDS011;2549;52.128;21.068;2022-07-29T15:11:39;3.93;;;0.80;;
5060;SDS011;2549;52.128;21.068;2022-07-29T15:14:06;3.67;;;0.80;;
5060;SDS011;2549;52.128;21.068;2022-07-29T15:16:35;5.60;;;1.03;;
5060;SDS011;2549;52.128;21.068;2022-07-29T15:19:03;1.47;;;0.77;;
5060;SDS011;2549;52.128;21.068;2022-07-29T15:21:31;1.50;;;0.70;;
5060;SDS011;2549;52.128;21.068;2022-07-29T15:23:58;1.13;;;0.80;;
5060;SDS011;2549;52.128;21.068;2022-07-29T15:26:25;2.50;;;0.80;;
5060;SDS011;2549;52.128;21.068;2022-07-29T15:28:52;6.13;;;1.23;;
5060;SDS011;2549;52.128;21.068;2022-07-29T15:31:21;6.20;;;0.80;;
5060;SDS011;2549;52.128;21.068;2022-07-29T15:33:49;1.30;;;0.87;;
5060;SDS011;2549;52.128;21.068;2022-07-29T15:36:22;1.57;;;1.10;;
5060;SDS011;2549;52.128;21.068;2022-07-29T15:39:09;4.43;;;1.03;;
5060;SDS011;2549;52.128;21.068;2022-07-29T15:41:36;0.80;;;0.80;;
5060;SDS011;2549;52.128;21.068;2022-07-29T15:44:03;1.63;;;0.73;;
5060;SDS011;2549;52.128;21.068;2022-07-29T15:46:30;3.13;;;0.90;;
5060;SDS011;2549;52.128;21.068;2022-07-29T15:49:15;2.97;;;0.80;;
5060;SDS011;2549;52.128;21.068;2022-07-29T15:51:42;1.23;;;0.80;;
5060;SDS011;2549;52.128;21.068;2022-07-29T15:54:09;1.10;;;0.80;;
5060;SDS011;2549;52.128;21.068;2022-07-29T15:56:36;4.20;;;0.80;;
5060;SDS011;2549;52.128;21.068;2022-07-29T15:59:03;2.37;;;1.03;;
5060;SDS011;2549;52.128;21.068;2022-07-29T16:01:29;1.53;;;0.90;;
5060;SDS011;2549;52.128;21.068;2022-07-29T16:03:57;1.03;;;0.90;;
5060;SDS011;2549;52.128;21.068;2022-07-29T16:06:24;0.83;;;0.80;;
5060;SDS011;2549;52.128;21.068;2022-07-29T16:08:51;1.03;;;0.90;;